Time;durP1;ratioP1;P1;durP2;ratioP2;P2;SDS_P1;SDS_P2;PMS_P1;PMS_P2;Temp;Humidity;BMP_temperature;BMP_pressure;BME280_temperature;BME280_humidity;BME280_pressure;Samples;Min_cycle;Max_cycle;Signal;HPM_P1;HPM_P2
2021/10/13 00:03:28;;;;;;;25.27;22.58;;;;;;;;;;10278709;28;20072;-61
2021/10/13 00:08:26;;;;;;;20.83;18.58;;;;;;;;;;10267247;28;20079;-62
2021/10/13 00:13:25;;;;;;;22.52;19.25;;;;;;;;;;10269864;28;20068;-61
2021/10/13 00:18:24;;;;;;;22.98;20.52;;;;;;;;;;10268211;28;20053;-62
2021/10/13 00:23:23;;;;;;;18.90;16.92;;;;;;;;;;10278337;28;20471;-62
2021/10/13 00:28:21;;;;;;;22.85;16.13;;;;;;;;;;10291602;28;20068;-61
2021/10/13 00:33:19;;;;;;;17.77;15.18;;;;;;;;;;10270568;28;20076;-62
2021/10/13 00:38:19;;;;;;;18.45;16.55;;;;;;;;;;10278688;28;20053;-61
2021/10/13 00:43:17;;;;;;;19.90;15.93;;;;;;;;;;10276691;28;20073;-62
2021/10/13 00:48:16;;;;;;;17.83;14.48;;;;;;;;;;10276785;28;20068;-61
2021/10/13 00:53:15;;;;;;;16.05;13.45;;;;;;;;;;10276366;28;20087;-61
2021/10/13 00:58:17;;;;;;;16.23;14.52;;;;;;;;;;10273533;28;20423;-62
2021/10/13 01:03:19;;;;;;;16.25;14.50;;;;;;;;;;10268119;28;20057;-61
2021/10/13 01:08:22;;;;;;;17.90;16.00;;;;;;;;;;10270442;28;20509;-61
2021/10/13 01:13:27;;;;;;;25.83;20.27;;;;;;;;;;10275753;28;20072;-61
2021/10/13 01:18:28;;;;;;;19.63;17.63;;;;;;;;;;10276157;28;20524;-61
2021/10/13 01:23:56;;;;;;;16.70;14.60;;;;;;;;;;10250174;28;20422;-62
2021/10/13 01:28:58;;;;;;;17.88;16.13;;;;;;;;;;10289472;28;20045;-62
2021/10/13 01:33:59;;;;;;;20.38;16.63;;;;;;;;;;10274832;28;20076;-62
2021/10/13 01:38:58;;;;;;;17.60;15.80;;;;;;;;;;10274839;28;20084;-62
2021/10/13 01:44:00;;;;;;;19.80;15.35;;;;;;;;;;10275041;28;20064;-62
2021/10/13 01:49:00;;;;;;;19.65;17.58;;;;;;;;;;10275062;28;20090;-62
2021/10/13 01:53:59;;;;;;;18.77;16.70;;;;;;;;;;10274562;28;20329;-62
2021/10/13 01:59:00;;;;;;;20.83;17.05;;;;;;;;;;10274491;28;20072;-61
2021/10/13 02:04:01;;;;;;;19.52;16.52;;;;;;;;;;10275286;28;20151;-61
2021/10/13 02:09:14;;;;;;;;;;;;;;;;;;10262685;28;20068;-62
2021/10/13 02:14:14;;;;;;;23.55;18.08;;;;;;;;;;10274814;28;20364;-62
2021/10/13 02:19:15;;;;;;;19.98;17.33;;;;;;;;;;10274862;28;20081;-62
2021/10/13 02:24:16;;;;;;;18.77;16.88;;;;;;;;;;10273644;28;20072;-62
2021/10/13 02:29:16;;;;;;;20.38;17.02;;;;;;;;;;10274030;28;20076;-62
2021/10/13 02:34:15;;;;;;;21.27;17.77;;;;;;;;;;10274329;28;20580;-63
2021/10/13 02:39:13;;;;;;;19.23;17.00;;;;;;;;;;10277020;28;20072;-62
2021/10/13 02:44:12;;;;;;;18.08;16.17;;;;;;;;;;10275013;28;20425;-62
2021/10/13 02:49:15;;;;;;;20.80;18.63;;;;;;;;;;10270954;28;20079;-63
2021/10/13 02:54:17;;;;;;;18.25;16.30;;;;;;;;;;10280621;28;20076;-62
2021/10/13 02:59:17;;;;;;;20.88;17.55;;;;;;;;;;10280956;28;20092;-61
2021/10/13 03:04:21;;;;;;;22.63;19.50;;;;;;;;;;10269407;28;20068;-62
2021/10/13 03:09:21;;;;;;;21.38;17.45;;;;;;;;;;10280998;28;20056;-62
2021/10/13 03:14:22;;;;;;;20.55;18.38;;;;;;;;;;10280775;28;20084;-61
2021/10/13 03:19:22;;;;;;;22.33;18.63;;;;;;;;;;10279703;28;20088;-62
2021/10/13 03:24:20;;;;;;;21.50;19.10;;;;;;;;;;10280082;28;20083;-62
2021/10/13 03:29:19;;;;;;;24.05;18.95;;;;;;;;;;10279877;28;20041;-62
2021/10/13 03:34:17;;;;;;;22.10;17.77;;;;;;;;;;10279499;28;20080;-62
2021/10/13 03:39:17;;;;;;;19.13;16.45;;;;;;;;;;10279247;28;20081;-62
2021/10/13 03:44:16;;;;;;;23.75;18.42;;;;;;;;;;10278634;28;20068;-62
2021/10/13 03:49:14;;;;;;;22.55;19.85;;;;;;;;;;10278672;28;20061;-62
2021/10/13 03:54:12;;;;;;;21.13;17.65;;;;;;;;;;10263349;28;20585;-62
2021/10/13 03:59:12;;;;;;;25.52;22.33;;;;;;;;;;10278693;28;20072;-62
2021/10/13 04:04:10;;;;;;;22.80;18.92;;;;;;;;;;10278435;28;20045;-62
2021/10/13 04:09:09;;;;;;;20.23;18.13;;;;;;;;;;10278257;28;20509;-62
2021/10/13 04:14:07;;;;;;;18.98;16.70;;;;;;;;;;10264016;28;20494;-62
2021/10/13 04:19:07;;;;;;;19.08;16.70;;;;;;;;;;10277902;28;20037;-62
2021/10/13 04:24:05;;;;;;;21.10;18.90;;;;;;;;;;10277247;28;20123;-62
2021/10/13 04:29:03;;;;;;;19.70;16.95;;;;;;;;;;10276083;28;20458;-61
2021/10/13 04:34:02;;;;;;;16.95;15.15;;;;;;;;;;10275945;28;20068;-62
2021/10/13 04:39:02;;;;;;;19.05;15.18;;;;;;;;;;10275944;28;20081;-61
2021/10/13 04:44:00;;;;;;;20.38;16.27;;;;;;;;;;10271854;28;20077;-61
2021/10/13 04:48:58;;;;;;;16.10;14.30;;;;;;;;;;10296217;28;20474;-61
2021/10/13 04:53:56;;;;;;;16.25;14.55;;;;;;;;;;10273452;28;20068;-61
2021/10/13 04:58:56;;;;;;;19.98;15.82;;;;;;;;;;10312457;28;20548;-62
2021/10/13 05:03:54;;;;;;;15.63;14.00;;;;;;;;;;10288778;28;20560;-62
2021/10/13 05:08:53;;;;;;;17.63;14.70;;;;;;;;;;10289184;28;20064;-61
2021/10/13 05:13:51;;;;;;;15.63;13.60;;;;;;;;;;10313775;28;20499;-61
2021/10/13 05:18:51;;;;;;;16.25;14.52;;;;;;;;;;10273797;28;20060;-62
2021/10/13 05:23:49;;;;;;;20.42;16.15;;;;;;;;;;10283039;28;20481;-62
2021/10/13 05:28:47;;;;;;;22.13;19.92;;;;;;;;;;10313334;28;20067;-62
2021/10/13 05:33:46;;;;;;;22.27;20.10;;;;;;;;;;10304011;28;20084;-62
2021/10/13 05:38:48;;;;;;;17.02;15.27;;;;;;;;;;10250541;28;20088;-63
2021/10/13 05:43:47;;;;;;;16.58;14.75;;;;;;;;;;10259401;28;20069;-62
2021/10/13 05:48:45;;;;;;;16.30;13.63;;;;;;;;;;10272893;28;20580;-62
2021/10/13 05:53:43;;;;;;;15.82;13.52;;;;;;;;;;10265666;28;20068;-62
2021/10/13 05:58:43;;;;;;;19.52;15.75;;;;;;;;;;10276650;28;20064;-61
2021/10/13 06:03:41;;;;;;;16.80;14.30;;;;;;;;;;10273606;28;20540;-62
2021/10/13 06:08:40;;;;;;;21.42;19.13;;;;;;;;;;10271286;28;20065;-62
2021/10/13 06:13:38;;;;;;;23.38;20.85;;;;;;;;;;10275817;28;20076;-62
2021/10/13 06:18:38;;;;;;;19.25;15.27;;;;;;;;;;10291328;28;20071;-63
2021/10/13 06:23:36;;;;;;;25.13;20.50;;;;;;;;;;10278726;28;20065;-61
2021/10/13 06:28:35;;;;;;;22.85;20.38;;;;;;;;;;10280881;28;20087;-61
2021/10/13 06:33:33;;;;;;;20.17;16.70;;;;;;;;;;10283262;28;20091;-61
2021/10/13 06:38:35;;;;;;;16.58;14.43;;;;;;;;;;10285895;28;20091;-61
2021/10/13 06:43:34;;;;;;;18.23;16.25;;;;;;;;;;10287135;28;20083;-60
2021/10/13 06:48:32;;;;;;;21.08;18.85;;;;;;;;;;10277387;28;20077;-62
2021/10/13 06:53:30;;;;;;;16.38;14.77;;;;;;;;;;10278305;28;20083;-62
2021/10/13 06:58:30;;;;;;;15.68;14.05;;;;;;;;;;10278269;28;20087;-62
2021/10/13 07:03:28;;;;;;;20.77;17.40;;;;;;;;;;10278135;28;20502;-62
2021/10/13 07:08:26;;;;;;;15.40;13.55;;;;;;;;;;10278749;28;20080;-62
2021/10/13 07:13:25;;;;;;;23.13;18.77;;;;;;;;;;10278052;28;20080;-62
2021/10/13 07:18:24;;;;;;;20.10;15.77;;;;;;;;;;10277548;28;20071;-62
2021/10/13 07:23:22;;;;;;;23.27;19.50;;;;;;;;;;10264533;28;20067;-62
2021/10/13 07:28:22;;;;;;;28.13;25.23;;;;;;;;;;10269632;28;20491;-61
2021/10/13 07:33:20;;;;;;;25.10;21.27;;;;;;;;;;10263502;28;20072;-62
2021/10/13 07:38:20;;;;;;;28.70;25.00;;;;;;;;;;10275588;28;20076;-62
2021/10/13 07:43:19;;;;;;;56.67;51.05;;;;;;;;;;10276822;28;20466;-62
2021/10/13 07:48:17;;;;;;;48.60;43.78;;;;;;;;;;10281616;28;20447;-62
2021/10/13 07:53:15;;;;;;;29.80;26.02;;;;;;;;;;10273680;28;20084;-61
2021/10/13 07:58:15;;;;;;;22.15;19.90;;;;;;;;;;10268586;28;20067;-63
2021/10/13 08:03:13;;;;;;;20.77;18.58;;;;;;;;;;10272934;28;20084;-63
2021/10/13 08:08:15;;;;;;;33.58;26.75;;;;;;;;;;10255827;28;20080;-63
2021/10/13 08:13:15;;;;;;;23.48;20.20;;;;;;;;;;10263180;28;20091;-64
2021/10/13 08:18:13;;;;;;;19.80;17.42;;;;;;;;;;10264470;28;20076;-63
2021/10/13 08:23:11;;;;;;;20.42;16.52;;;;;;;;;;10264669;28;20521;-63
2021/10/13 08:28:10;;;;;;;19.70;17.65;;;;;;;;;;10275260;28;20513;-64
2021/10/13 08:33:10;;;;;;;25.65;20.65;;;;;;;;;;10275592;28;20068;-63
2021/10/13 08:38:09;;;;;;;20.25;17.58;;;;;;;;;;10269148;28;20057;-63
2021/10/13 08:43:07;;;;;;;18.98;17.00;;;;;;;;;;10275051;28;20076;-63
2021/10/13 08:48:07;;;;;;;19.45;17.00;;;;;;;;;;10274837;28;20063;-63
2021/10/13 08:53:09;;;;;;;36.28;25.08;;;;;;;;;;10275082;28;20057;-63
2021/10/13 08:58:12;;;;;;;24.55;21.42;;;;;;;;;;10274502;28;20068;-63
2021/10/13 09:03:24;;;;;;;29.35;22.27;;;;;;;;;;10275601;28;20048;-62
2021/10/13 09:08:24;;;;;;;22.40;18.13;;;;;;;;;;10277534;28;20045;-63
2021/10/13 09:13:23;;;;;;;27.25;21.27;;;;;;;;;;10276046;28;20139;-63
2021/10/13 09:18:22;;;;;;;21.02;16.63;;;;;;;;;;10276437;28;20053;-63
2021/10/13 09:23:21;;;;;;;19.27;16.63;;;;;;;;;;10270599;28;20072;-63
2021/10/13 09:28:21;;;;;;;29.52;20.38;;;;;;;;;;10254406;28;20517;-63
2021/10/13 09:33:20;;;;;;;22.33;19.08;;;;;;;;;;10255091;28;20068;-63
2021/10/13 09:38:19;;;;;;;21.83;17.55;;;;;;;;;;10254304;28;20045;-63
2021/10/13 09:43:32;;;;;;;20.27;18.17;;;;;;;;;;10254247;28;20064;-63
2021/10/13 09:48:31;;;;;;;24.27;21.52;;;;;;;;;;10253919;28;20426;-63
2021/10/13 09:53:30;;;;;;;21.08;18.88;;;;;;;;;;10253965;28;20065;-63
2021/10/13 09:58:29;;;;;;;24.42;21.73;;;;;;;;;;10254064;28;20045;-63
2021/10/13 10:03:28;;;;;;;22.48;20.08;;;;;;;;;;10254245;28;20072;-63
2021/10/13 10:08:27;;;;;;;22.65;20.25;;;;;;;;;;10265448;28;20047;-63
2021/10/13 10:13:33;;;;;;;20.48;18.35;;;;;;;;;;10258995;28;20484;-63
2021/10/13 10:18:33;;;;;;;23.88;19.75;;;;;;;;;;10245805;28;20053;-63
2021/10/13 10:23:33;;;;;;;26.83;19.60;;;;;;;;;;10255024;28;20045;-63
2021/10/13 10:28:49;;;;;;;19.27;17.27;;;;;;;;;;10257004;28;20069;-63
2021/10/13 10:33:50;;;;;;;21.70;19.38;;;;;;;;;;10237074;28;20048;-64
2021/10/13 10:38:49;;;;;;;23.00;20.48;;;;;;;;;;10267273;28;20403;-63
2021/10/13 10:43:47;;;;;;;23.63;18.13;;;;;;;;;;10252381;28;20041;-64
2021/10/13 10:48:46;;;;;;;22.95;20.55;;;;;;;;;;10253579;28;20044;-63
2021/10/13 10:53:46;;;;;;;19.63;17.70;;;;;;;;;;10252611;28;20049;-63
2021/10/13 10:58:46;;;;;;;24.98;20.38;;;;;;;;;;10252903;28;20052;-63
2021/10/13 11:03:51;;;;;;;22.60;20.00;;;;;;;;;;10259986;28;20033;-63
2021/10/13 11:08:58;;;;;;;19.92;17.77;;;;;;;;;;10260255;28;20067;-63
2021/10/13 11:13:57;;;;;;;24.63;22.02;;;;;;;;;;10266264;28;20090;-63
2021/10/13 11:19:06;;;;;;;23.75;20.60;;;;;;;;;;10258792;28;20061;-63
2021/10/13 11:24:06;;;;;;;19.33;17.42;;;;;;;;;;10261956;28;20041;-63
2021/10/13 11:29:15;;;;;;;21.92;19.00;;;;;;;;;;10278756;28;20049;-63
2021/10/13 11:34:16;;;;;;;25.60;21.33;;;;;;;;;;10273980;28;20056;-63
2021/10/13 11:39:20;;;;;;;24.20;20.95;;;;;;;;;;10246497;28;20081;-63
2021/10/13 11:44:20;;;;;;;21.80;19.52;;;;;;;;;;10265607;28;20470;-63
2021/10/13 11:49:18;;;;;;;28.00;24.45;;;;;;;;;;10279025;28;20049;-64
2021/10/13 11:54:26;;;;;;;23.52;19.27;;;;;;;;;;10255376;28;20068;-63
2021/10/13 11:59:24;;;;;;;26.00;23.20;;;;;;;;;;10242304;28;20545;-63
2021/10/13 12:04:22;;;;;;;32.42;23.92;;;;;;;;;;10257689;28;20045;-63
2021/10/13 12:09:21;;;;;;;40.75;31.50;;;;;;;;;;10258004;28;20057;-64
2021/10/13 12:14:20;;;;;;;29.35;25.27;;;;;;;;;;10261085;28;20054;-64
2021/10/13 12:19:42;;;;;;;27.33;23.40;;;;;;;;;;10245526;28;20080;-64
2021/10/13 12:24:40;;;;;;;29.80;24.92;;;;;;;;;;10238361;28;20384;-63
2021/10/13 12:29:43;;;;;;;42.05;31.20;;;;;;;;;;10240681;28;20042;-63
2021/10/13 12:34:42;;;;;;;24.85;22.15;;;;;;;;;;10262791;28;20065;-63
2021/10/13 12:39:40;;;;;;;26.02;23.35;;;;;;;;;;10256911;28;20049;-63
2021/10/13 12:44:41;;;;;;;27.23;24.63;;;;;;;;;;10277202;28;20041;-63
2021/10/13 12:49:40;;;;;;;32.72;27.60;;;;;;;;;;10246869;28;20453;-63
2021/10/13 12:54:39;;;;;;;35.65;31.75;;;;;;;;;;10256158;28;20076;-63
2021/10/13 12:59:38;;;;;;;57.20;40.17;;;;;;;;;;10276043;28;20044;-64
2021/10/13 13:04:38;;;;;;;70.63;51.53;;;;;;;;;;10259772;28;20095;-63
2021/10/13 13:09:37;;;;;;;32.40;24.58;;;;;;;;;;10273129;28;20072;-64
2021/10/13 13:14:35;;;;;;;51.92;35.22;;;;;;;;;;10258157;28;20092;-63
2021/10/13 13:19:34;;;;;;;25.00;22.35;;;;;;;;;;10250169;28;20103;-63
2021/10/13 13:24:33;;;;;;;45.97;34.45;;;;;;;;;;10275180;28;20048;-64
2021/10/13 13:29:32;;;;;;;43.75;27.25;;;;;;;;;;10270450;28;20072;-64
2021/10/13 13:34:30;;;;;;;70.07;46.97;;;;;;;;;;10275563;28;20080;-64
2021/10/13 13:39:28;;;;;;;54.45;31.73;;;;;;;;;;10255801;28;20087;-64
2021/10/13 13:44:29;;;;;;;27.55;19.73;;;;;;;;;;10255068;28;20136;-64
2021/10/13 13:49:32;;;;;;;19.30;17.23;;;;;;;;;;10240160;28;20513;-63
2021/10/13 13:54:30;;;;;;;27.05;22.55;;;;;;;;;;10250685;28;20075;-63
2021/10/13 13:59:30;;;;;;;27.85;23.27;;;;;;;;;;10273275;28;20076;-64
2021/10/13 14:04:28;;;;;;;23.48;20.25;;;;;;;;;;10273173;28;20077;-63
2021/10/13 14:09:27;;;;;;;23.70;21.27;;;;;;;;;;10272991;28;20433;-63
2021/10/13 14:14:25;;;;;;;30.38;25.23;;;;;;;;;;10275087;28;20422;-64
2021/10/13 14:19:25;;;;;;;40.30;30.67;;;;;;;;;;10275056;28;20077;-63
2021/10/13 14:24:23;;;;;;;62.00;46.20;;;;;;;;;;10275321;28;20167;-63
2021/10/13 14:29:21;;;;;;;138.60;103.10;;;;;;;;;;10274819;28;20045;-63
2021/10/13 14:34:20;;;;;;;62.10;53.30;;;;;;;;;;10278112;28;20041;-63
2021/10/13 14:39:20;;;;;;;44.47;37.13;;;;;;;;;;10282372;28;20092;-63
2021/10/13 14:44:18;;;;;;;51.97;46.10;;;;;;;;;;10282800;28;20075;-63
2021/10/13 14:49:16;;;;;;;58.20;50.17;;;;;;;;;;10282293;28;20084;-63
2021/10/13 14:54:15;;;;;;;69.05;55.33;;;;;;;;;;10281036;28;20044;-63
2021/10/13 14:59:14;;;;;;;101.93;77.28;;;;;;;;;;10282153;28;20569;-63
2021/10/13 15:04:13;;;;;;;41.13;36.47;;;;;;;;;;10281833;28;20350;-63
2021/10/13 15:09:11;;;;;;;35.85;31.08;;;;;;;;;;10281642;28;20079;-63
2021/10/13 15:14:09;;;;;;;26.13;23.13;;;;;;;;;;10281281;28;20049;-62
2021/10/13 15:19:09;;;;;;;26.20;20.38;;;;;;;;;;10248282;28;20081;-64
2021/10/13 15:24:08;;;;;;;26.10;19.70;;;;;;;;;;10240559;28;20504;-62
2021/10/13 15:29:16;;;;;;;22.58;18.88;;;;;;;;;;10251147;28;20065;-64
2021/10/13 15:34:17;;;;;;;20.13;17.17;;;;;;;;;;10273985;28;20052;-63
2021/10/13 15:39:17;;;;;;;24.33;20.27;;;;;;;;;;10247981;28;20077;-62
2021/10/13 15:44:16;;;;;;;21.90;19.60;;;;;;;;;;10253532;28;20544;-63
2021/10/13 15:49:15;;;;;;;27.58;21.38;;;;;;;;;;10257934;28;20064;-63
2021/10/13 15:54:14;;;;;;;27.17;24.33;;;;;;;;;;10259293;28;20491;-63
2021/10/13 15:59:12;;;;;;;27.95;23.27;;;;;;;;;;10250061;28;20103;-63
2021/10/13 16:04:10;;;;;;;29.08;23.17;;;;;;;;;;10252011;28;20071;-63
2021/10/13 16:09:10;;;;;;;24.90;22.20;;;;;;;;;;10253348;28;20072;-63
2021/10/13 16:14:10;;;;;;;26.17;20.63;;;;;;;;;;10237315;28;20053;-63
2021/10/13 16:19:08;;;;;;;22.13;19.33;;;;;;;;;;10268654;28;20088;-63
2021/10/13 16:24:08;;;;;;;20.45;18.10;;;;;;;;;;10270258;28;20069;-62
2021/10/13 16:29:08;;;;;;;19.50;17.50;;;;;;;;;;10272192;28;20513;-62
2021/10/13 16:34:08;;;;;;;19.30;16.92;;;;;;;;;;10240752;28;20666;-63
2021/10/13 16:39:06;;;;;;;20.63;17.60;;;;;;;;;;10242761;28;20101;-63
2021/10/13 16:44:05;;;;;;;17.88;15.82;;;;;;;;;;10241314;28;20048;-62
2021/10/13 16:49:04;;;;;;;21.35;16.63;;;;;;;;;;10254959;28;20079;-62
2021/10/13 16:54:03;;;;;;;20.98;16.65;;;;;;;;;;10275638;28;20075;-63
2021/10/13 16:59:02;;;;;;;19.63;16.00;;;;;;;;;;10241520;28;20079;-62
2021/10/13 17:04:00;;;;;;;26.27;22.38;;;;;;;;;;10266234;28;20509;-62
2021/10/13 17:09:00;;;;;;;25.25;22.58;;;;;;;;;;10252448;28;20072;-62
2021/10/13 17:13:58;;;;;;;26.17;17.17;;;;;;;;;;10273600;28;20417;-62
2021/10/13 17:18:57;;;;;;;20.70;17.65;;;;;;;;;;10263215;28;20108;-63
2021/10/13 17:23:55;;;;;;;19.90;17.05;;;;;;;;;;10243100;28;20041;-62
2021/10/13 17:28:55;;;;;;;18.33;16.42;;;;;;;;;;10243529;28;20048;-63
2021/10/13 17:33:54;;;;;;;17.58;15.88;;;;;;;;;;10254856;28;20080;-62
2021/10/13 17:38:52;;;;;;;20.88;16.13;;;;;;;;;;10253843;28;20088;-62
2021/10/13 17:43:51;;;;;;;19.80;17.70;;;;;;;;;;10253889;28;20056;-62
2021/10/13 17:48:51;;;;;;;22.55;18.42;;;;;;;;;;10267164;28;20044;-61
2021/10/13 17:53:59;;;;;;;22.63;18.35;;;;;;;;;;10259805;28;20037;-62
2021/10/13 17:58:58;;;;;;;20.90;17.63;;;;;;;;;;10252925;28;20461;-62
2021/10/13 18:03:57;;;;;;;18.33;16.42;;;;;;;;;;10270085;28;20056;-62
2021/10/13 18:08:56;;;;;;;17.92;16.05;;;;;;;;;;10256043;28;20072;-62
2021/10/13 18:13:54;;;;;;;17.02;15.23;;;;;;;;;;10259090;28;20048;-62
2021/10/13 18:18:53;;;;;;;18.83;17.02;;;;;;;;;;10253360;28;20080;-62
2021/10/13 18:23:53;;;;;;;18.02;15.20;;;;;;;;;;10242857;28;20042;-63
2021/10/13 18:28:51;;;;;;;19.08;16.02;;;;;;;;;;10253825;28;20072;-62
2021/10/13 18:33:50;;;;;;;19.00;16.98;;;;;;;;;;10278563;28;20052;-63
2021/10/13 18:38:48;;;;;;;17.85;15.82;;;;;;;;;;10276791;28;20093;-63
2021/10/13 18:43:48;;;;;;;17.75;15.95;;;;;;;;;;10260344;28;20044;-63
2021/10/13 18:48:48;;;;;;;19.65;15.52;;;;;;;;;;10261575;28;20061;-63
2021/10/13 18:53:49;;;;;;;17.27;15.48;;;;;;;;;;10260259;28;20071;-63
2021/10/13 18:58:49;;;;;;;17.90;15.77;;;;;;;;;;10261381;28;20080;-63
2021/10/13 19:03:47;;;;;;;16.67;14.98;;;;;;;;;;10259630;28;20033;-64
2021/10/13 19:08:45;;;;;;;17.77;15.98;;;;;;;;;;10260549;28;20033;-63
2021/10/13 19:13:44;;;;;;;21.55;16.55;;;;;;;;;;10259345;28;20049;-63
2021/10/13 19:18:46;;;;;;;16.92;15.13;;;;;;;;;;10258529;28;20076;-63
2021/10/13 19:23:45;;;;;;;18.17;15.10;;;;;;;;;;10256715;28;20045;-63
2021/10/13 19:28:43;;;;;;;17.70;14.85;;;;;;;;;;10255404;28;20079;-63
2021/10/13 19:33:41;;;;;;;19.92;15.90;;;;;;;;;;10267062;28;20072;-63
2021/10/13 19:38:41;;;;;;;18.33;15.85;;;;;;;;;;10278408;28;20081;-63
2021/10/13 19:43:39;;;;;;;18.05;16.25;;;;;;;;;;10261295;28;20076;-64
2021/10/13 19:48:38;;;;;;;17.23;15.45;;;;;;;;;;10264062;28;20083;-63
2021/10/13 19:53:37;;;;;;;18.67;16.77;;;;;;;;;;10260105;28;20454;-63
2021/10/13 19:58:37;;;;;;;16.45;14.80;;;;;;;;;;10258043;28;20486;-63
2021/10/13 20:03:35;;;;;;;17.65;15.90;;;;;;;;;;10259087;28;20033;-62
2021/10/13 20:08:33;;;;;;;17.27;15.07;;;;;;;;;;10263418;28;20065;-64
2021/10/13 20:13:32;;;;;;;18.67;14.93;;;;;;;;;;10257379;28;20041;-63
2021/10/13 20:18:32;;;;;;;17.77;15.95;;;;;;;;;;10237981;28;20475;-63
2021/10/13 20:23:30;;;;;;;22.60;19.52;;;;;;;;;;10257746;28;20061;-63
2021/10/13 20:28:28;;;;;;;22.35;15.80;;;;;;;;;;10246337;28;20080;-63
2021/10/13 20:33:27;;;;;;;17.13;15.32;;;;;;;;;;10256832;28;20443;-63
2021/10/13 20:38:26;;;;;;;21.77;16.30;;;;;;;;;;10258583;28;20076;-62
2021/10/13 20:43:24;;;;;;;16.98;14.82;;;;;;;;;;10277660;28;20036;-61
2021/10/13 20:48:23;;;;;;;19.65;16.50;;;;;;;;;;10277655;28;20402;-63
2021/10/13 20:53:21;;;;;;;16.52;14.57;;;;;;;;;;10277300;28;20407;-63
2021/10/13 20:58:21;;;;;;;16.23;14.45;;;;;;;;;;10277103;28;20080;-62
2021/10/13 21:03:19;;;;;;;17.85;14.93;;;;;;;;;;10276750;28;20155;-63
2021/10/13 21:08:18;;;;;;;18.08;15.85;;;;;;;;;;10277281;28;20049;-63
2021/10/13 21:13:16;;;;;;;17.70;13.75;;;;;;;;;;10276491;28;20056;-61
2021/10/13 21:18:15;;;;;;;24.42;18.50;;;;;;;;;;10274255;28;20179;-63
2021/10/13 21:23:14;;;;;;;24.83;18.48;;;;;;;;;;10264039;28;20042;-62
2021/10/13 21:28:12;;;;;;;21.58;16.90;;;;;;;;;;10234246;28;20068;-63
2021/10/13 21:33:11;;;;;;;18.00;14.82;;;;;;;;;;10235902;28;20053;-61
2021/10/13 21:38:13;;;;;;;14.95;13.45;;;;;;;;;;10235465;28;20358;-61
2021/10/13 21:43:12;;;;;;;20.63;16.05;;;;;;;;;;10230720;28;20073;-63
2021/10/13 21:48:11;;;;;;;20.20;16.55;;;;;;;;;;10231499;28;20084;-63
2021/10/13 21:53:11;;;;;;;23.98;17.88;;;;;;;;;;10230721;28;20076;-62
2021/10/13 21:58:10;;;;;;;21.20;16.20;;;;;;;;;;10234157;28;20073;-63
2021/10/13 22:03:08;;;;;;;19.60;16.38;;;;;;;;;;10235274;28;20049;-63
2021/10/13 22:08:07;;;;;;;22.58;16.08;;;;;;;;;;10234193;28;20045;-63
2021/10/13 22:13:07;;;;;;;21.73;18.92;;;;;;;;;;10235053;28;20057;-62
2021/10/13 22:18:05;;;;;;;20.00;15.63;;;;;;;;;;10234231;28;20049;-63
2021/10/13 22:23:04;;;;;;;32.75;25.88;;;;;;;;;;10234359;28;20037;-63
2021/10/13 22:28:02;;;;;;;22.15;17.70;;;;;;;;;;10234362;28;20038;-62
2021/10/13 22:33:02;;;;;;;36.63;30.05;;;;;;;;;;10234774;28;20055;-63
2021/10/13 22:38:02;;;;;;;18.45;16.42;;;;;;;;;;10233602;28;20049;-64
2021/10/13 22:43:00;;;;;;;20.00;16.35;;;;;;;;;;10233842;28;20077;-63
2021/10/13 22:47:58;;;;;;;21.08;16.73;;;;;;;;;;10233866;28;20041;-63
2021/10/13 22:52:59;;;;;;;18.92;16.98;;;;;;;;;;10233754;28;20082;-63
2021/10/13 22:57:57;;;;;;;19.67;16.60;;;;;;;;;;10241159;28;20120;-63
2021/10/13 23:02:55;;;;;;;20.48;15.85;;;;;;;;;;10241009;28;20073;-63
2021/10/13 23:07:54;;;;;;;17.88;15.98;;;;;;;;;;10241546;28;20050;-63
2021/10/13 23:12:54;;;;;;;18.77;16.55;;;;;;;;;;10240841;28;20471;-63
2021/10/13 23:17:52;;;;;;;19.00;16.90;;;;;;;;;;10240286;28;20477;-64
2021/10/13 23:22:50;;;;;;;20.10;15.82;;;;;;;;;;10240132;28;20092;-63
2021/10/13 23:27:49;;;;;;;21.05;17.67;;;;;;;;;;10240729;28;20052;-63
2021/10/13 23:32:48;;;;;;;21.05;18.13;;;;;;;;;;10239824;28;20392;-62
2021/10/13 23:37:47;;;;;;;23.20;19.17;;;;;;;;;;10239592;28;20062;-63
2021/10/13 23:42:45;;;;;;;22.08;19.73;;;;;;;;;;10239661;28;20080;-63
2021/10/13 23:47:43;;;;;;;26.27;21.25;;;;;;;;;;10239395;28;20073;-62
2021/10/13 23:52:43;;;;;;;24.38;21.55;;;;;;;;;;10239230;28;20069;-62
2021/10/13 23:57:41;;;;;;;24.65;22.10;;;;;;;;;;10239202;28;20061;-61
